PWSweather.com
Personal Weather Stations
Station Observations

ChardChardGB

Lat: 50.877408, Lon: -2.94964741

Elevation: 341

Station Type: WS3083

http://www.merriott-astro.co.uk/weather/index.htm

High Low Average
Temperature 69.1°F20.6°C 51.3°F10.7°C 59.6°F15.3°C
Dew Point 60.0°F15.6°C 45.8°F7.7°C 56.2°F13.4°C
Winds 13.7 mph 22.0 kmh 1.1 mph 1.8 kmh 6.0 mph S9.7 kmh S
Wind Gusts 19.7 mph31.7 kmh 2.2 mph3.5 kmh 9.0 mph14.5 kmh
Humidity 100% 71% 89%
Pressure 29.98 in1015.2 mb 29.56 in1001.0 mb -
Precipitation 0.21 in5.3 mm - -
Hour Temp Dew Point Humidity Winds Wind Gusts Pressure Precip Precip Rate Daily Precip Total
12:00 AM 58.5°F14.7°C 58.5°F14.7°C 100% 6.7 mph SSW10.8 kmh SSW 9.8 mph15.8 kmh 29.72 in1006.4 mb 0.00 in0.0 mm 0.00 in0.0 mm 0.00 in0.0 mm
12:10 AM 58.5°F14.7°C 58.5°F14.7°C 100% 5.0 mph S8.0 kmh S 10.7 mph17.2 kmh 29.70 in1005.8 mb 0.00 in0.0 mm 0.00 in0.0 mm 0.00 in0.0 mm
12:20 AM 58.5°F14.7°C 58.5°F14.7°C 100% 5.0 mph SSW8.0 kmh SSW 7.6 mph12.2 kmh 29.70 in1005.8 mb 0.00 in0.0 mm 0.00 in0.0 mm 0.00 in0.0 mm
12:30 AM 58.3°F14.6°C 58.0°F14.4°C 99% 4.8 mph SSW7.7 kmh SSW 7.6 mph12.2 kmh 29.70 in1005.8 mb 0.00 in0.0 mm 0.00 in0.0 mm 0.00 in0.0 mm
12:40 AM 58.3°F14.6°C 58.0°F14.4°C 99% 5.8 mph S9.3 kmh S 8.3 mph13.4 kmh 29.70 in1005.8 mb 0.00 in0.0 mm 0.00 in0.0 mm 0.00 in0.0 mm
12:50 AM 58.5°F14.7°C 58.2°F14.6°C 99% 5.8 mph S9.3 kmh S 9.2 mph14.8 kmh 29.70 in1005.8 mb 0.00 in0.0 mm 0.00 in0.0 mm 0.00 in0.0 mm
01:00 AM 58.6°F14.8°C 58.4°F14.7°C 99% 4.6 mph SSW7.4 kmh SSW 6.0 mph9.7 kmh 29.69 in1005.4 mb 0.00 in0.0 mm 0.00 in0.0 mm 0.00 in0.0 mm
01:10 AM 58.6°F14.8°C 58.4°F14.7°C 99% 3.5 mph SSW5.6 kmh SSW 6.0 mph9.7 kmh 29.68 in1005.1 mb 0.00 in0.0 mm 0.00 in0.0 mm 0.00 in0.0 mm
01:20 AM 58.8°F14.9°C 58.6°F14.8°C 99% 4.1 mph SSW6.6 kmh SSW 6.9 mph11.1 kmh 29.68 in1005.1 mb 0.00 in0.0 mm 0.00 in0.0 mm 0.00 in0.0 mm
01:30 AM 59.0°F15.0°C 58.7°F14.8°C 99% 3.9 mph SW6.3 kmh SW 5.4 mph8.7 kmh 29.68 in1005.1 mb 0.00 in0.0 mm 0.00 in0.0 mm 0.00 in0.0 mm
01:40 AM 59.2°F15.1°C 58.9°F14.9°C 99% 3.9 mph S6.3 kmh S 6.9 mph11.1 kmh 29.67 in1004.7 mb 0.00 in0.0 mm 0.00 in0.0 mm 0.00 in0.0 mm
01:50 AM 59.2°F15.1°C 58.9°F14.9°C 99% 4.7 mph SSW7.6 kmh SSW 6.9 mph11.1 kmh 29.67 in1004.7 mb 0.00 in0.0 mm 0.00 in0.0 mm 0.00 in0.0 mm
02:00 AM 59.4°F15.2°C 59.1°F15.1°C 99% 4.9 mph SSW7.9 kmh SSW 7.6 mph12.2 kmh 29.66 in1004.4 mb 0.00 in0.0 mm 0.00 in0.0 mm 0.00 in0.0 mm
02:10 AM 59.2°F15.1°C 58.9°F14.9°C 99% 4.8 mph S7.7 kmh S 6.9 mph11.1 kmh 29.65 in1004.1 mb 0.00 in0.0 mm 0.00 in0.0 mm 0.00 in0.0 mm
02:20 AM 59.4°F15.2°C 59.1°F15.1°C 99% 6.7 mph S10.8 kmh S 9.2 mph14.8 kmh 29.65 in1004.1 mb 0.00 in0.0 mm 0.00 in0.0 mm 0.00 in0.0 mm
02:30 AM 59.4°F15.2°C 59.1°F15.1°C 99% 5.8 mph SSW9.3 kmh SSW 7.6 mph12.2 kmh 29.64 in1003.7 mb 0.00 in0.0 mm 0.00 in0.0 mm 0.00 in0.0 mm
02:40 AM 59.5°F15.3°C 59.3°F15.2°C 99% 5.1 mph SSW8.2 kmh SSW 7.6 mph12.2 kmh 29.65 in1004.1 mb 0.00 in0.0 mm 0.00 in0.0 mm 0.00 in0.0 mm
02:50 AM 59.7°F15.4°C 59.7°F15.4°C 100% 7.6 mph SSW12.2 kmh SSW 11.4 mph18.3 kmh 29.64 in1003.7 mb 0.00 in0.0 mm 0.00 in0.0 mm 0.00 in0.0 mm
03:00 AM 59.5°F15.3°C 59.6°F15.3°C 100% 5.5 mph SW8.9 kmh SW 8.3 mph13.4 kmh 29.63 in1003.4 mb 0.00 in0.0 mm 0.00 in0.0 mm 0.00 in0.0 mm
03:10 AM 59.7°F15.4°C 59.7°F15.4°C 100% 6.4 mph S10.3 kmh S 11.4 mph18.3 kmh 29.64 in1003.7 mb 0.00 in0.0 mm 0.00 in0.0 mm 0.00 in0.0 mm
03:20 AM 59.7°F15.4°C 59.7°F15.4°C 100% 7.2 mph SSW11.6 kmh SSW 9.8 mph15.8 kmh 29.63 in1003.4 mb 0.00 in0.0 mm 0.00 in0.0 mm 0.00 in0.0 mm
03:30 AM 59.7°F15.4°C 59.7°F15.4°C 100% 7.5 mph S12.1 kmh S 11.4 mph18.3 kmh 29.62 in1003.0 mb 0.00 in0.0 mm 0.00 in0.0 mm 0.00 in0.0 mm
03:40 AM 59.7°F15.4°C 59.7°F15.4°C 100% 5.1 mph S8.2 kmh S 9.2 mph14.8 kmh 29.62 in1003.0 mb 0.00 in0.0 mm 0.00 in0.0 mm 0.00 in0.0 mm
03:50 AM 59.9°F15.5°C 59.1°F15.1°C 97% 5.3 mph SW8.5 kmh SW 6.0 mph9.7 kmh 29.62 in1003.0 mb 0.00 in0.0 mm 0.00 in0.0 mm 0.00 in0.0 mm
04:00 AM 59.7°F15.4°C 58.6°F14.8°C 96% 5.6 mph S9.0 kmh S 8.3 mph13.4 kmh 29.61 in1002.7 mb 0.00 in0.0 mm 0.00 in0.0 mm 0.00 in0.0 mm
04:10 AM 59.5°F15.3°C 58.1°F14.5°C 95% 6.7 mph S10.8 kmh S 11.4 mph18.3 kmh 29.61 in1002.7 mb 0.00 in0.0 mm 0.00 in0.0 mm 0.00 in0.0 mm
04:20 AM 59.5°F15.3°C 57.8°F14.3°C 94% 7.4 mph SSW11.9 kmh SSW 10.7 mph17.2 kmh 29.61 in1002.7 mb 0.00 in0.0 mm 0.00 in0.0 mm 0.00 in0.0 mm
04:30 AM 59.4°F15.2°C 57.3°F14.1°C 93% 6.6 mph SSW10.6 kmh SSW 9.8 mph15.8 kmh 29.61 in1002.7 mb 0.00 in0.0 mm 0.00 in0.0 mm 0.00 in0.0 mm
04:40 AM 59.4°F15.2°C 57.3°F14.1°C 93% 5.9 mph S9.5 kmh S 13.0 mph20.9 kmh 29.60 in1002.4 mb 0.00 in0.0 mm 0.00 in0.0 mm 0.00 in0.0 mm
04:50 AM 59.5°F15.3°C 57.2°F14.0°C 92% 8.5 mph S13.7 kmh S 11.4 mph18.3 kmh 29.60 in1002.4 mb 0.00 in0.0 mm 0.00 in0.0 mm 0.00 in0.0 mm
05:00 AM 59.4°F15.2°C 57.0°F13.9°C 92% 5.4 mph SSW8.7 kmh SSW 7.6 mph12.2 kmh 29.60 in1002.4 mb 0.00 in0.0 mm 0.00 in0.0 mm 0.00 in0.0 mm
05:10 AM 59.4°F15.2°C 57.3°F14.1°C 93% 6.6 mph S10.6 kmh S 11.4 mph18.3 kmh 29.59 in1002.0 mb 0.00 in0.0 mm 0.00 in0.0 mm 0.00 in0.0 mm
05:20 AM 59.4°F15.2°C 57.3°F14.1°C 93% 7.7 mph S12.4 kmh S 11.4 mph18.3 kmh 29.60 in1002.4 mb 0.00 in0.0 mm 0.00 in0.0 mm 0.00 in0.0 mm
05:30 AM 59.4°F15.2°C 57.0°F13.9°C 92% 6.4 mph SSW10.3 kmh SSW 9.8 mph15.8 kmh 29.59 in1002.0 mb 0.00 in0.0 mm 0.00 in0.0 mm 0.00 in0.0 mm
05:40 AM 59.4°F15.2°C 56.7°F13.7°C 91% 7.8 mph S12.6 kmh S 12.1 mph19.5 kmh 29.59 in1002.0 mb 0.00 in0.0 mm 0.00 in0.0 mm 0.00 in0.0 mm
05:50 AM 59.4°F15.2°C 57.0°F13.9°C 92% 6.3 mph SSW10.1 kmh SSW 9.2 mph14.8 kmh 29.59 in1002.0 mb 0.00 in0.0 mm 0.00 in0.0 mm 0.00 in0.0 mm
06:00 AM 59.4°F15.2°C 57.0°F13.9°C 92% 5.8 mph S9.3 kmh S 8.3 mph13.4 kmh 29.58 in1001.7 mb 0.00 in0.0 mm 0.00 in0.0 mm 0.00 in0.0 mm
06:10 AM 59.4°F15.2°C 57.3°F14.1°C 93% 6.5 mph S10.5 kmh S 7.6 mph12.2 kmh 29.58 in1001.7 mb 0.00 in0.0 mm 0.00 in0.0 mm 0.00 in0.0 mm
06:20 AM 59.4°F15.2°C 57.3°F14.1°C 93% 7.9 mph SSW12.7 kmh SSW 10.7 mph17.2 kmh 29.58 in1001.7 mb 0.00 in0.0 mm 0.00 in0.0 mm 0.00 in0.0 mm
06:30 AM 59.4°F15.2°C 57.9°F14.4°C 95% 8.6 mph S13.8 kmh S 13.6 mph21.9 kmh 29.57 in1001.4 mb 0.01 in0.3 mm 0.06 in1.5 mm 0.01 in0.3 mm
06:40 AM 59.4°F15.2°C 58.5°F14.7°C 97% 8.9 mph S14.3 kmh S 13.6 mph21.9 kmh 29.57 in1001.4 mb 0.01 in0.3 mm 0.00 in0.0 mm 0.01 in0.3 mm
06:50 AM 59.4°F15.2°C 58.5°F14.7°C 97% 7.4 mph SW11.9 kmh SW 10.7 mph17.2 kmh 29.57 in1001.4 mb 0.01 in0.3 mm 0.00 in0.0 mm 0.01 in0.3 mm
07:00 AM 59.2°F15.1°C 58.1°F14.5°C 96% 4.9 mph SSW7.9 kmh SSW 6.0 mph9.7 kmh 29.58 in1001.7 mb 0.01 in0.3 mm 0.00 in0.0 mm 0.01 in0.3 mm
07:10 AM 59.0°F15.0°C 57.6°F14.2°C 95% 6.1 mph S9.8 kmh S 10.7 mph17.2 kmh 29.58 in1001.7 mb 0.01 in0.3 mm 0.00 in0.0 mm 0.01 in0.3 mm
07:20 AM 59.2°F15.1°C 57.8°F14.3°C 95% 6.0 mph SSE9.7 kmh SSE 9.2 mph14.8 kmh 29.57 in1001.4 mb 0.01 in0.3 mm 0.00 in0.0 mm 0.01 in0.3 mm
07:30 AM 59.4°F15.2°C 57.6°F14.2°C 94% 3.8 mph S6.1 kmh S 6.0 mph9.7 kmh 29.57 in1001.4 mb 0.00 in0.0 mm 0.00 in0.0 mm 0.01 in0.3 mm
07:40 AM 59.4°F15.2°C 57.9°F14.4°C 95% 3.2 mph S5.1 kmh S 4.5 mph7.2 kmh 29.58 in1001.7 mb 0.02 in0.5 mm 0.12 in3.0 mm 0.04 in1.0 mm
07:50 AM 59.4°F15.2°C 57.9°F14.4°C 95% 6.1 mph SSW9.8 kmh SSW 9.2 mph14.8 kmh 29.57 in1001.4 mb 0.02 in0.5 mm 0.00 in0.0 mm 0.04 in1.0 mm
08:00 AM 59.7°F15.4°C 58.3°F14.6°C 95% 5.2 mph WSW8.4 kmh WSW 8.3 mph13.4 kmh 29.57 in1001.4 mb 0.02 in0.5 mm 0.00 in0.0 mm 0.04 in1.0 mm
08:10 AM 61.2°F16.2°C 59.1°F15.1°C 93% 4.2 mph SW6.8 kmh SW 6.9 mph11.1 kmh 29.58 in1001.7 mb 0.02 in0.5 mm 0.00 in0.0 mm 0.04 in1.0 mm
08:20 AM 61.3°F16.3°C 58.1°F14.5°C 89% 4.4 mph SW7.1 kmh SW 7.6 mph12.2 kmh 29.57 in1001.4 mb 0.02 in0.5 mm 0.00 in0.0 mm 0.04 in1.0 mm
08:30 AM 61.0°F16.1°C 57.4°F14.1°C 88% 4.4 mph SSW7.1 kmh SSW 6.9 mph11.1 kmh 29.57 in1001.4 mb 0.01 in0.3 mm 0.00 in0.0 mm 0.04 in1.0 mm
08:40 AM 60.8°F16.0°C 56.9°F13.8°C 87% 5.1 mph S8.2 kmh S 9.2 mph14.8 kmh 29.58 in1001.7 mb 0.00 in0.0 mm 0.00 in0.0 mm 0.04 in1.0 mm
08:50 AM 60.6°F15.9°C 56.4°F13.6°C 86% 5.9 mph S9.5 kmh S 9.2 mph14.8 kmh 29.57 in1001.4 mb 0.00 in0.0 mm 0.00 in0.0 mm 0.04 in1.0 mm
09:00 AM 61.0°F16.1°C 56.8°F13.8°C 86% 3.2 mph SSW5.1 kmh SSW 5.4 mph8.7 kmh 29.57 in1001.4 mb 0.00 in0.0 mm 0.00 in0.0 mm 0.04 in1.0 mm
09:10 AM 61.3°F16.3°C 57.1°F13.9°C 86% 3.6 mph S5.8 kmh S 6.9 mph11.1 kmh 29.58 in1001.7 mb 0.00 in0.0 mm 0.00 in0.0 mm 0.04 in1.0 mm
09:20 AM 61.7°F16.5°C 57.2°F14.0°C 85% 3.3 mph S5.3 kmh S 6.9 mph11.1 kmh 29.58 in1001.7 mb 0.00 in0.0 mm 0.00 in0.0 mm 0.04 in1.0 mm
09:30 AM 62.1°F16.7°C 57.5°F14.2°C 85% 4.5 mph S7.2 kmh S 6.9 mph11.1 kmh 29.57 in1001.4 mb 0.00 in0.0 mm 0.00 in0.0 mm 0.04 in1.0 mm
09:40 AM 62.8°F17.1°C 57.9°F14.4°C 84% 3.7 mph SW6.0 kmh SW 5.4 mph8.7 kmh 29.57 in1001.4 mb 0.00 in0.0 mm 0.00 in0.0 mm 0.04 in1.0 mm
09:50 AM 61.9°F16.6°C 56.3°F13.5°C 82% 4.8 mph S7.7 kmh S 7.6 mph12.2 kmh 29.58 in1001.7 mb 0.00 in0.0 mm 0.00 in0.0 mm 0.04 in1.0 mm
10:00 AM 61.0°F16.1°C 56.1°F13.4°C 84% 4.3 mph SW6.9 kmh SW 6.9 mph11.1 kmh 29.58 in1001.7 mb 0.01 in0.3 mm 0.01 in0.3 mm 0.05 in1.3 mm
10:10 AM 59.9°F15.5°C 56.4°F13.6°C 88% 3.9 mph SW6.3 kmh SW 6.0 mph9.7 kmh 29.57 in1001.4 mb 0.06 in1.5 mm 0.30 in7.6 mm 0.09 in2.3 mm
10:20 AM 59.5°F15.3°C 57.2°F14.0°C 92% 3.0 mph SW4.8 kmh SW 5.4 mph8.7 kmh 29.58 in1001.7 mb 0.09 in2.3 mm 0.18 in4.6 mm 0.13 in3.3 mm
10:30 AM 59.5°F15.3°C 57.5°F14.2°C 93% 3.5 mph S5.6 kmh S 5.4 mph8.7 kmh 29.58 in1001.7 mb 0.12 in3.0 mm 0.18 in4.6 mm 0.15 in3.8 mm
10:40 AM 60.6°F15.9°C 58.6°F14.8°C 93% 4.1 mph SW6.6 kmh SW 6.0 mph9.7 kmh 29.57 in1001.4 mb 0.12 in3.0 mm 0.00 in0.0 mm 0.15 in3.8 mm
10:50 AM 61.2°F16.2°C 58.5°F14.7°C 91% 3.4 mph SW5.5 kmh SW 6.0 mph9.7 kmh 29.57 in1001.4 mb 0.12 in3.0 mm 0.00 in0.0 mm 0.15 in3.8 mm
11:00 AM 62.1°F16.7°C 59.1°F15.1°C 90% 2.2 mph WSW3.5 kmh WSW 3.1 mph5.0 kmh 29.57 in1001.4 mb 0.11 in2.8 mm 0.00 in0.0 mm 0.15 in3.8 mm
11:10 AM 62.2°F16.8°C 59.0°F15.0°C 89% 1.8 mph SSW2.9 kmh SSW 2.2 mph3.5 kmh 29.57 in1001.4 mb 0.05 in1.3 mm 0.00 in0.0 mm 0.15 in3.8 mm
11:20 AM 63.0°F17.2°C 58.7°F14.8°C 86% 5.6 mph SSW9.0 kmh SSW 7.6 mph12.2 kmh 29.57 in1001.4 mb 0.01 in0.3 mm 0.00 in0.0 mm 0.15 in3.8 mm
11:30 AM 62.8°F17.1°C 58.2°F14.6°C 85% 5.6 mph S9.0 kmh S 9.8 mph15.8 kmh 29.57 in1001.4 mb 0.00 in0.0 mm 0.00 in0.0 mm 0.15 in3.8 mm
11:40 AM 63.9°F17.7°C 58.3°F14.6°C 82% 5.7 mph S9.2 kmh S 8.3 mph13.4 kmh 29.57 in1001.4 mb 0.00 in0.0 mm 0.00 in0.0 mm 0.15 in3.8 mm
11:50 AM 64.2°F17.9°C 57.2°F14.0°C 78% 4.7 mph S7.6 kmh S 6.9 mph11.1 kmh 29.57 in1001.4 mb 0.00 in0.0 mm 0.00 in0.0 mm 0.15 in3.8 mm
12:00 PM 63.0°F17.2°C 56.4°F13.6°C 79% 5.3 mph S8.5 kmh S 11.4 mph18.3 kmh 29.57 in1001.4 mb 0.00 in0.0 mm 0.00 in0.0 mm 0.15 in3.8 mm
12:10 PM 62.2°F16.8°C 56.0°F13.3°C 80% 5.4 mph WSW8.7 kmh WSW 6.0 mph9.7 kmh 29.57 in1001.4 mb 0.00 in0.0 mm 0.00 in0.0 mm 0.15 in3.8 mm
12:20 PM 63.3°F17.4°C 56.0°F13.3°C 77% 4.9 mph WNW7.9 kmh WNW 8.3 mph13.4 kmh 29.57 in1001.4 mb 0.00 in0.0 mm 0.00 in0.0 mm 0.15 in3.8 mm
12:30 PM 63.5°F17.5°C 54.3°F12.4°C 72% 3.8 mph SW6.1 kmh SW 6.0 mph9.7 kmh 29.56 in1001.0 mb 0.00 in0.0 mm 0.00 in0.0 mm 0.15 in3.8 mm
12:40 PM 63.1°F17.3°C 55.5°F13.1°C 76% 4.4 mph SSW7.1 kmh SSW 6.0 mph9.7 kmh 29.57 in1001.4 mb 0.00 in0.0 mm 0.00 in0.0 mm 0.15 in3.8 mm
12:50 PM 63.3°F17.4°C 56.4°F13.6°C 78% 4.3 mph SSE6.9 kmh SSE 8.3 mph13.4 kmh 29.57 in1001.4 mb 0.00 in0.0 mm 0.00 in0.0 mm 0.15 in3.8 mm
01:00 PM 63.1°F17.3°C 56.9°F13.8°C 80% 3.4 mph SW5.5 kmh SW 5.4 mph8.7 kmh 29.57 in1001.4 mb 0.00 in0.0 mm 0.00 in0.0 mm 0.15 in3.8 mm
01:10 PM 62.6°F17.0°C 56.4°F13.6°C 80% 5.1 mph SW8.2 kmh SW 8.3 mph13.4 kmh 29.57 in1001.4 mb 0.00 in0.0 mm 0.00 in0.0 mm 0.15 in3.8 mm
01:20 PM 62.8°F17.1°C 56.9°F13.8°C 81% 5.1 mph SSW8.2 kmh SSW 6.9 mph11.1 kmh 29.57 in1001.4 mb 0.00 in0.0 mm 0.00 in0.0 mm 0.15 in3.8 mm
01:30 PM 63.0°F17.2°C 57.1°F13.9°C 81% 4.2 mph SSW6.8 kmh SSW 6.9 mph11.1 kmh 29.57 in1001.4 mb 0.00 in0.0 mm 0.00 in0.0 mm 0.15 in3.8 mm
01:40 PM 63.0°F17.2°C 57.1°F13.9°C 81% 4.5 mph SSW7.2 kmh SSW 6.9 mph11.1 kmh 29.57 in1001.4 mb 0.00 in0.0 mm 0.00 in0.0 mm 0.15 in3.8 mm
01:50 PM 62.1°F16.7°C 56.9°F13.8°C 83% 3.5 mph S5.6 kmh S 7.6 mph12.2 kmh 29.57 in1001.4 mb 0.00 in0.0 mm 0.00 in0.0 mm 0.15 in3.8 mm
02:00 PM 61.2°F16.2°C 57.6°F14.2°C 88% 5.0 mph S8.0 kmh S 7.6 mph12.2 kmh 29.58 in1001.7 mb 0.01 in0.3 mm 0.01 in0.3 mm 0.17 in4.3 mm
02:10 PM 63.0°F17.2°C 60.0°F15.6°C 90% 4.3 mph S6.9 kmh S 6.0 mph9.7 kmh 29.57 in1001.4 mb 0.01 in0.3 mm 0.00 in0.0 mm 0.17 in4.3 mm
02:20 PM 61.9°F16.6°C 58.0°F14.4°C 87% 3.7 mph SSW6.0 kmh SSW 5.4 mph8.7 kmh 29.58 in1001.7 mb 0.01 in0.3 mm 0.00 in0.0 mm 0.17 in4.3 mm
02:30 PM 61.2°F16.2°C 57.6°F14.2°C 88% 3.3 mph S5.3 kmh S 5.4 mph8.7 kmh 29.58 in1001.7 mb 0.02 in0.5 mm 0.06 in1.5 mm 0.18 in4.6 mm
02:40 PM 61.0°F16.1°C 58.3°F14.6°C 91% 1.8 mph S2.9 kmh S 3.1 mph5.0 kmh 29.58 in1001.7 mb 0.05 in1.3 mm 0.18 in4.6 mm 0.20 in5.1 mm
02:50 PM 61.3°F16.3°C 58.7°F14.8°C 91% 2.2 mph WNW3.5 kmh WNW 3.8 mph6.1 kmh 29.59 in1002.0 mb 0.05 in1.3 mm 0.00 in0.0 mm 0.20 in5.1 mm
03:00 PM 64.8°F18.2°C 59.8°F15.4°C 84% 1.5 mph S2.4 kmh S 2.2 mph3.5 kmh 29.59 in1002.0 mb 0.04 in1.0 mm 0.00 in0.0 mm 0.20 in5.1 mm
03:10 PM 65.8°F18.8°C 57.0°F13.9°C 73% 2.0 mph NW3.2 kmh NW 3.1 mph5.0 kmh 29.58 in1001.7 mb 0.04 in1.0 mm 0.00 in0.0 mm 0.20 in5.1 mm
03:20 PM 68.0°F20.0°C 59.0°F15.0°C 73% 1.1 mph NE1.8 kmh NE 2.2 mph3.5 kmh 29.59 in1002.0 mb 0.04 in1.0 mm 0.00 in0.0 mm 0.20 in5.1 mm
03:30 PM 69.1°F20.6°C 59.3°F15.2°C 71% 1.5 mph W2.4 kmh W 3.1 mph5.0 kmh 29.60 in1002.4 mb 0.02 in0.5 mm 0.00 in0.0 mm 0.20 in5.1 mm
03:40 PM 66.6°F19.2°C 56.9°F13.8°C 71% 2.9 mph NW4.7 kmh NW 5.4 mph8.7 kmh 29.60 in1002.4 mb 0.00 in0.0 mm 0.00 in0.0 mm 0.20 in5.1 mm
03:50 PM 65.3°F18.5°C 56.4°F13.6°C 73% 4.5 mph N7.2 kmh N 6.0 mph9.7 kmh 29.61 in1002.7 mb 0.00 in0.0 mm 0.00 in0.0 mm 0.20 in5.1 mm
04:00 PM 63.5°F17.5°C 56.5°F13.6°C 78% 5.8 mph N9.3 kmh N 6.9 mph11.1 kmh 29.62 in1003.0 mb 0.00 in0.0 mm 0.00 in0.0 mm 0.20 in5.1 mm
04:10 PM 62.1°F16.7°C 57.2°F14.0°C 84% 5.3 mph N8.5 kmh N 6.9 mph11.1 kmh 29.62 in1003.0 mb 0.00 in0.0 mm 0.00 in0.0 mm 0.20 in5.1 mm
04:20 PM 63.0°F17.2°C 57.7°F14.3°C 83% 4.4 mph NE7.1 kmh NE 6.0 mph9.7 kmh 29.62 in1003.0 mb 0.00 in0.0 mm 0.00 in0.0 mm 0.20 in5.1 mm
04:30 PM 63.0°F17.2°C 57.1°F13.9°C 81% 4.3 mph NE6.9 kmh NE 6.0 mph9.7 kmh 29.63 in1003.4 mb 0.00 in0.0 mm 0.00 in0.0 mm 0.20 in5.1 mm
04:40 PM 63.3°F17.4°C 57.7°F14.3°C 82% 3.3 mph NNE5.3 kmh NNE 5.4 mph8.7 kmh 29.63 in1003.4 mb 0.00 in0.0 mm 0.00 in0.0 mm 0.20 in5.1 mm
04:50 PM 63.5°F17.5°C 56.2°F13.4°C 77% 4.3 mph N6.9 kmh N 6.9 mph11.1 kmh 29.64 in1003.7 mb 0.00 in0.0 mm 0.00 in0.0 mm 0.20 in5.1 mm
05:00 PM 63.0°F17.2°C 56.7°F13.7°C 80% 4.9 mph NNW7.9 kmh NNW 6.0 mph9.7 kmh 29.65 in1004.1 mb 0.00 in0.0 mm 0.00 in0.0 mm 0.20 in5.1 mm
05:10 PM 62.2°F16.8°C 56.4°F13.6°C 81% 4.4 mph N7.1 kmh N 5.4 mph8.7 kmh 29.65 in1004.1 mb 0.00 in0.0 mm 0.00 in0.0 mm 0.20 in5.1 mm
05:20 PM 61.9°F16.6°C 56.7°F13.7°C 83% 3.8 mph N6.1 kmh N 5.4 mph8.7 kmh 29.65 in1004.1 mb 0.00 in0.0 mm 0.00 in0.0 mm 0.20 in5.1 mm
05:30 PM 61.3°F16.3°C 55.8°F13.2°C 82% 4.6 mph N7.4 kmh N 6.9 mph11.1 kmh 29.66 in1004.4 mb 0.00 in0.0 mm 0.00 in0.0 mm 0.20 in5.1 mm
05:40 PM 61.0°F16.1°C 55.8°F13.2°C 83% 3.7 mph NNE6.0 kmh NNE 6.0 mph9.7 kmh 29.66 in1004.4 mb 0.00 in0.0 mm 0.00 in0.0 mm 0.20 in5.1 mm
05:50 PM 60.6°F15.9°C 55.8°F13.2°C 84% 3.7 mph NW6.0 kmh NW 5.4 mph8.7 kmh 29.68 in1005.1 mb 0.00 in0.0 mm 0.00 in0.0 mm 0.20 in5.1 mm
06:00 PM 60.3°F15.7°C 56.1°F13.4°C 86% 3.1 mph NW5.0 kmh NW 5.4 mph8.7 kmh 29.68 in1005.1 mb 0.00 in0.0 mm 0.00 in0.0 mm 0.20 in5.1 mm
06:10 PM 60.1°F15.6°C 56.2°F13.4°C 87% 2.8 mph NNW4.5 kmh NNW 4.5 mph7.2 kmh 29.70 in1005.8 mb 0.00 in0.0 mm 0.00 in0.0 mm 0.20 in5.1 mm
06:20 PM 60.1°F15.6°C 56.5°F13.6°C 88% 3.1 mph NW5.0 kmh NW 6.0 mph9.7 kmh 29.70 in1005.8 mb 0.00 in0.0 mm 0.00 in0.0 mm 0.20 in5.1 mm
06:30 PM 60.3°F15.7°C 57.0°F13.9°C 89% 5.1 mph NNW8.2 kmh NNW 6.9 mph11.1 kmh 29.71 in1006.1 mb 0.00 in0.0 mm 0.00 in0.0 mm 0.20 in5.1 mm
06:40 PM 59.7°F15.4°C 56.2°F13.4°C 88% 7.5 mph NW12.1 kmh NW 12.1 mph19.5 kmh 29.72 in1006.4 mb 0.00 in0.0 mm 0.00 in0.0 mm 0.20 in5.1 mm
06:50 PM 58.8°F14.9°C 55.9°F13.3°C 90% 7.1 mph NNE11.4 kmh NNE 10.7 mph17.2 kmh 29.73 in1006.8 mb 0.00 in0.0 mm 0.00 in0.0 mm 0.20 in5.1 mm
07:00 PM 58.3°F14.6°C 55.7°F13.2°C 91% 8.3 mph NE13.4 kmh NE 11.4 mph18.3 kmh 29.73 in1006.8 mb 0.00 in0.0 mm 0.00 in0.0 mm 0.20 in5.1 mm
07:10 PM 58.1°F14.5°C 55.8°F13.2°C 92% 6.5 mph NNE10.5 kmh NNE 8.3 mph13.4 kmh 29.75 in1007.5 mb 0.00 in0.0 mm 0.00 in0.0 mm 0.20 in5.1 mm
07:20 PM 58.1°F14.5°C 56.1°F13.4°C 93% 7.2 mph N11.6 kmh N 9.2 mph14.8 kmh 29.75 in1007.5 mb 0.00 in0.0 mm 0.00 in0.0 mm 0.20 in5.1 mm
07:30 PM 57.9°F14.4°C 55.9°F13.3°C 93% 7.8 mph NNW12.6 kmh NNW 13.0 mph20.9 kmh 29.76 in1007.8 mb 0.01 in0.3 mm 0.06 in1.5 mm 0.21 in5.3 mm
07:40 PM 57.7°F14.3°C 55.7°F13.2°C 93% 9.4 mph NE15.1 kmh NE 15.2 mph24.5 kmh 29.77 in1008.1 mb 0.01 in0.3 mm 0.00 in0.0 mm 0.21 in5.3 mm
07:50 PM 57.4°F14.1°C 55.1°F12.8°C 92% 11.9 mph NE19.2 kmh NE 15.9 mph25.6 kmh 29.79 in1008.8 mb 0.01 in0.3 mm 0.00 in0.0 mm 0.21 in5.3 mm
08:00 PM 56.7°F13.7°C 53.8°F12.1°C 90% 12.2 mph NE19.6 kmh NE 19.7 mph31.7 kmh 29.80 in1009.1 mb 0.01 in0.3 mm 0.00 in0.0 mm 0.21 in5.3 mm
08:10 PM 55.8°F13.2°C 52.3°F11.3°C 88% 13.7 mph NNE22.0 kmh NNE 19.7 mph31.7 kmh 29.80 in1009.1 mb 0.01 in0.3 mm 0.00 in0.0 mm 0.21 in5.3 mm
08:20 PM 55.4°F13.0°C 52.2°F11.2°C 89% 10.8 mph NNE17.4 kmh NNE 13.6 mph21.9 kmh 29.82 in1009.8 mb 0.01 in0.3 mm 0.00 in0.0 mm 0.21 in5.3 mm
08:30 PM 54.9°F12.7°C 52.0°F11.1°C 90% 11.9 mph NE19.2 kmh NE 19.0 mph30.6 kmh 29.82 in1009.8 mb 0.00 in0.0 mm 0.00 in0.0 mm 0.21 in5.3 mm
08:40 PM 54.9°F12.7°C 52.0°F11.1°C 90% 11.1 mph NE17.9 kmh NE 14.5 mph23.3 kmh 29.84 in1010.5 mb 0.00 in0.0 mm 0.00 in0.0 mm 0.21 in5.3 mm
08:50 PM 54.9°F12.7°C 51.1°F10.6°C 87% 10.0 mph NE16.1 kmh NE 12.1 mph19.5 kmh 29.84 in1010.5 mb 0.00 in0.0 mm 0.00 in0.0 mm 0.21 in5.3 mm
09:00 PM 54.7°F12.6°C 50.3°F10.2°C 85% 10.8 mph NE17.4 kmh NE 13.0 mph20.9 kmh 29.86 in1011.2 mb 0.00 in0.0 mm 0.00 in0.0 mm 0.21 in5.3 mm
09:10 PM 54.3°F12.4°C 51.5°F10.8°C 90% 10.6 mph NE17.1 kmh NE 14.5 mph23.3 kmh 29.86 in1011.2 mb 0.00 in0.0 mm 0.00 in0.0 mm 0.21 in5.3 mm
09:20 PM 54.1°F12.3°C 51.3°F10.7°C 90% 11.0 mph NE17.7 kmh NE 14.5 mph23.3 kmh 29.87 in1011.5 mb 0.00 in0.0 mm 0.00 in0.0 mm 0.21 in5.3 mm
09:30 PM 54.0°F12.2°C 50.2°F10.1°C 87% 10.7 mph NE17.2 kmh NE 11.4 mph18.3 kmh 29.89 in1012.2 mb 0.00 in0.0 mm 0.00 in0.0 mm 0.21 in5.3 mm
09:40 PM 54.0°F12.2°C 50.2°F10.1°C 87% 12.6 mph NE20.3 kmh NE 19.0 mph30.6 kmh 29.89 in1012.2 mb 0.00 in0.0 mm 0.00 in0.0 mm 0.21 in5.3 mm
09:50 PM 53.8°F12.1°C 50.0°F10.0°C 87% 10.8 mph NE17.4 kmh NE 15.2 mph24.5 kmh 29.90 in1012.5 mb 0.00 in0.0 mm 0.00 in0.0 mm 0.21 in5.3 mm
10:00 PM 53.8°F12.1°C 49.4°F9.7°C 85% 11.3 mph ENE18.2 kmh ENE 15.2 mph24.5 kmh 29.90 in1012.5 mb 0.00 in0.0 mm 0.00 in0.0 mm 0.21 in5.3 mm
10:10 PM 53.6°F12.0°C 49.2°F9.6°C 85% 9.0 mph NE14.5 kmh NE 11.4 mph18.3 kmh 29.91 in1012.9 mb 0.00 in0.0 mm 0.00 in0.0 mm 0.21 in5.3 mm
10:20 PM 53.4°F11.9°C 49.0°F9.4°C 85% 10.4 mph NE16.7 kmh NE 12.1 mph19.5 kmh 29.91 in1012.9 mb 0.00 in0.0 mm 0.00 in0.0 mm 0.21 in5.3 mm
10:30 PM 52.7°F11.5°C 48.6°F9.2°C 86% 11.2 mph NE18.0 kmh NE 13.6 mph21.9 kmh 29.92 in1013.2 mb 0.00 in0.0 mm 0.00 in0.0 mm 0.21 in5.3 mm
10:40 PM 52.5°F11.4°C 48.8°F9.3°C 87% 11.8 mph NE19.0 kmh NE 15.2 mph24.5 kmh 29.93 in1013.5 mb 0.00 in0.0 mm 0.00 in0.0 mm 0.21 in5.3 mm
10:50 PM 52.5°F11.4°C 47.8°F8.8°C 84% 13.4 mph NE21.6 kmh NE 15.9 mph25.6 kmh 29.94 in1013.9 mb 0.00 in0.0 mm 0.00 in0.0 mm 0.21 in5.3 mm
11:00 PM 52.3°F11.3°C 46.7°F8.2°C 81% 11.5 mph NE18.5 kmh NE 13.6 mph21.9 kmh 29.95 in1014.2 mb 0.00 in0.0 mm 0.00 in0.0 mm 0.21 in5.3 mm
11:10 PM 52.2°F11.2°C 46.2°F7.9°C 80% 11.4 mph NE18.3 kmh NE 13.6 mph21.9 kmh 29.95 in1014.2 mb 0.00 in0.0 mm 0.00 in0.0 mm 0.21 in5.3 mm
11:20 PM 52.0°F11.1°C 46.3°F7.9°C 81% 12.3 mph NE19.8 kmh NE 18.3 mph29.5 kmh 29.95 in1014.2 mb 0.00 in0.0 mm 0.00 in0.0 mm 0.21 in5.3 mm
11:30 PM 51.6°F10.9°C 46.0°F7.8°C 81% 11.2 mph NE18.0 kmh NE 13.6 mph21.9 kmh 29.97 in1014.9 mb 0.00 in0.0 mm 0.00 in0.0 mm 0.21 in5.3 mm
11:40 PM 51.4°F10.8°C 45.8°F7.7°C 81% 9.9 mph N15.9 kmh N 13.0 mph20.9 kmh 29.98 in1015.2 mb 0.00 in0.0 mm 0.00 in0.0 mm 0.21 in5.3 mm
11:50 PM 51.3°F10.7°C 46.0°F7.8°C 82% 8.1 mph NE13.0 kmh NE 9.8 mph15.8 kmh 29.98 in1015.2 mb 0.00 in0.0 mm 0.00 in0.0 mm 0.21 in5.3 mm